Hicksville, Virginia
Current Conditions -  °F | °C
As of 10:52 PM on Sunday 23 Nov 2014 (Local Time) from KBLF Reporting Station
Overcast Overcast  
Wind Chill: 14°   Ceiling: 1500
Heat Index: 14°   Visibility: 10mi
Dew Point: 10°   Wind: 18mph
Humidity: 77%   Direction: 160°SSE
Pressure: 29.62"   Gusts: 32mph
Location:  37.1593°N, 81.1986°W
Report Text: KBLF 240352Z AUTO 16016G28KT 130V200 10SM BKN015 OVC023 14/10 A2962 RMK AO2 PK WND 17039/0325 RAE09 PRESFR SLP013 P0001 T01390100
Loading
Personal Weather Stations






























Interactive Weather Map New forecast layout! Learn more

10-Day Weather Forecast

Advertisements
Track Severe Weather on mobile